createdAt,value
2023-01-08T00:01:13.900Z,11.55
2023-01-08T00:03:41.090Z,11.50
2023-01-08T00:06:15.125Z,11.68
2023-01-08T00:08:42.251Z,12.43
2023-01-08T00:11:08.950Z,11.23
2023-01-08T00:16:05.106Z,9.93
2023-01-08T00:18:32.110Z,11.57
2023-01-08T00:20:59.429Z,10.15
2023-01-08T00:23:26.697Z,10.80
2023-01-08T00:25:53.377Z,10.75
2023-01-08T00:28:21.113Z,9.98
2023-01-08T00:30:48.980Z,9.00
2023-01-08T00:33:15.941Z,9.75
2023-01-08T00:35:42.774Z,9.68
2023-01-08T00:40:36.692Z,6.70
2023-01-08T00:43:03.730Z,8.32
2023-01-08T00:45:30.762Z,9.02
2023-01-08T00:47:57.606Z,8.60
2023-01-08T00:50:25.036Z,9.82
2023-01-08T00:52:51.864Z,7.00
2023-01-08T00:55:18.856Z,9.80
2023-01-08T00:57:45.574Z,7.55
2023-01-08T01:02:40.837Z,6.38
2023-01-08T01:07:37.710Z,8.10
2023-01-08T01:10:04.851Z,6.30
2023-01-08T01:12:31.428Z,7.40
2023-01-08T01:14:58.288Z,6.40
2023-01-08T01:17:25.187Z,7.65
2023-01-08T01:19:51.849Z,6.97
2023-01-08T01:24:45.131Z,7.15
2023-01-08T01:29:38.485Z,7.57
2023-01-08T01:32:06.993Z,7.32
2023-01-08T01:34:33.783Z,9.27
2023-01-08T01:37:00.455Z,7.50
2023-01-08T01:41:53.685Z,7.78
2023-01-08T01:47:13.936Z,6.50
2023-01-08T01:49:47.783Z,7.85
2023-01-08T01:52:14.615Z,7.13
2023-01-08T01:54:41.665Z,8.35
2023-01-08T01:57:08.726Z,8.98
2023-01-08T01:59:35.469Z,6.75
2023-01-08T02:02:02.548Z,7.20
2023-01-08T02:04:29.374Z,8.10
2023-01-08T02:07:00.587Z,8.25
2023-01-08T02:10:02.811Z,6.97
2023-01-08T02:12:49.713Z,8.02
2023-01-08T02:15:27.545Z,8.85
2023-01-08T02:18:28.206Z,8.20
2023-01-08T02:21:01.712Z,7.97
2023-01-08T02:23:45.413Z,7.47
2023-01-08T02:26:26.741Z,7.90
2023-01-08T02:29:15.855Z,7.43
2023-01-08T02:31:43.690Z,9.43
2023-01-08T02:34:11.802Z,8.90
2023-01-08T02:36:41.998Z,9.18
2023-01-08T02:39:27.494Z,6.88
2023-01-08T02:42:10.106Z,9.30
2023-01-08T02:44:50.820Z,8.38
2023-01-08T02:47:32.212Z,9.10
2023-01-08T02:50:07.536Z,7.70
2023-01-08T02:52:41.130Z,8.55
2023-01-08T02:55:09.450Z,8.88
2023-01-08T02:57:36.608Z,9.48
2023-01-08T03:00:04.476Z,8.15
2023-01-08T03:02:35.597Z,9.40
2023-01-08T03:05:13.118Z,9.98
2023-01-08T03:07:40.110Z,8.30
2023-01-08T03:10:07.818Z,10.07
2023-01-08T03:12:52.794Z,9.95
2023-01-08T03:15:25.751Z,9.85
2023-01-08T03:17:57.505Z,8.20
2023-01-08T03:20:25.626Z,8.05
2023-01-08T03:22:56.326Z,10.52
2023-01-08T03:25:26.559Z,8.32
2023-01-08T03:28:03.259Z,8.07
2023-01-08T03:30:31.063Z,8.40
2023-01-08T03:33:01.314Z,8.52
2023-01-08T03:35:30.146Z,6.97
2023-01-08T03:38:20.099Z,8.18
2023-01-08T03:40:53.881Z,7.10
2023-01-08T03:43:20.658Z,7.75
2023-01-08T03:46:00.100Z,7.10
2023-01-08T03:48:29.802Z,7.53
2023-01-08T03:50:56.427Z,7.55
2023-01-08T03:53:23.154Z,8.05
2023-01-08T03:58:16.501Z,6.55
2023-01-08T04:00:43.117Z,8.40
2023-01-08T04:05:36.522Z,8.90
2023-01-08T04:08:03.237Z,9.23
2023-01-08T04:12:56.432Z,9.45
2023-01-08T04:17:49.706Z,7.13
2023-01-08T04:20:16.461Z,8.10
2023-01-08T04:25:10.018Z,7.60
2023-01-08T04:27:40.923Z,8.75
2023-01-08T04:30:08.491Z,8.80
2023-01-08T04:32:35.111Z,9.90
2023-01-08T04:35:01.737Z,9.82
2023-01-08T04:37:28.350Z,9.77
2023-01-08T04:42:21.600Z,9.35
2023-01-08T04:47:15.168Z,8.85
2023-01-08T04:49:41.787Z,8.95
2023-01-08T04:54:34.995Z,6.97
2023-01-08T04:59:28.156Z,7.10
2023-01-08T05:04:23.809Z,10.10
2023-01-08T05:06:50.476Z,9.10
2023-01-08T05:11:44.378Z,9.23
2023-01-08T05:14:11.202Z,9.68
2023-01-08T05:16:38.009Z,8.90
2023-01-08T05:19:04.775Z,8.85
2023-01-08T05:23:58.128Z,9.32
2023-01-08T05:26:25.246Z,10.40
2023-01-08T05:28:52.895Z,10.30
2023-01-08T05:31:19.880Z,8.48
2023-01-08T05:33:46.612Z,7.63
2023-01-08T05:38:40.644Z,9.52
2023-01-08T05:41:08.319Z,10.35
2023-01-08T05:43:35.708Z,10.90
2023-01-08T05:46:03.440Z,9.25
2023-01-08T05:48:32.373Z,10.15
2023-01-08T05:50:59.185Z,10.98
2023-01-08T05:53:25.800Z,10.18
2023-01-08T05:55:52.523Z,9.50
2023-01-08T06:00:46.606Z,10.48
2023-01-08T06:03:13.306Z,10.65
2023-01-08T06:05:40.036Z,9.95
2023-01-08T06:08:08.673Z,10.15
2023-01-08T06:10:38.137Z,10.32
2023-01-08T06:13:10.174Z,10.55
2023-01-08T06:15:40.305Z,9.25
2023-01-08T06:18:07.126Z,10.02
2023-01-08T06:23:00.907Z,10.27
2023-01-08T06:27:55.085Z,8.13
2023-01-08T06:32:48.266Z,9.80
2023-01-08T06:37:42.566Z,8.35
2023-01-08T06:40:09.907Z,8.63
2023-01-08T06:42:36.513Z,8.50
2023-01-08T06:45:03.332Z,10.02
2023-01-08T06:47:30.078Z,9.32
2023-01-08T06:52:23.514Z,7.88
2023-01-08T06:57:17.011Z,8.20
2023-01-08T06:59:43.727Z,8.07
2023-01-08T07:04:41.806Z,6.88
2023-01-08T07:07:08.809Z,8.63
2023-01-08T07:09:36.228Z,7.97
2023-01-08T07:12:03.066Z,8.07
2023-01-08T07:16:56.436Z,9.13
2023-01-08T07:19:23.461Z,8.55
2023-01-08T07:21:50.444Z,9.80
2023-01-08T07:24:18.193Z,8.05
2023-01-08T07:26:44.912Z,6.78
2023-01-08T07:29:11.486Z,9.55
2023-01-08T07:31:38.190Z,7.80
2023-01-08T07:36:31.988Z,7.97
2023-01-08T07:38:58.582Z,8.95
2023-01-08T07:41:26.032Z,7.68
2023-01-08T07:43:52.813Z,8.75
2023-01-08T07:48:46.321Z,9.48
2023-01-08T07:53:40.073Z,7.10
2023-01-08T07:56:08.854Z,9.35
2023-01-08T07:58:36.212Z,10.95
2023-01-08T08:01:06.742Z,9.25
2023-01-08T08:03:33.463Z,7.47
2023-01-08T08:08:27.927Z,7.22
2023-01-08T08:13:21.287Z,5.90
2023-01-08T08:15:47.954Z,8.70
2023-01-08T08:20:41.498Z,6.22
2023-01-08T08:23:14.069Z,6.03
2023-01-08T08:25:42.099Z,7.97
2023-01-08T08:28:11.168Z,9.02
2023-01-08T08:30:41.369Z,9.27
2023-01-08T08:33:09.202Z,8.13
2023-01-08T08:35:36.143Z,10.60
2023-01-08T08:38:03.588Z,9.38
2023-01-08T08:40:30.326Z,10.70
2023-01-08T08:45:25.369Z,8.48
2023-01-08T08:47:52.392Z,8.80
2023-01-08T08:50:19.912Z,9.40
2023-01-08T08:52:48.867Z,8.25
2023-01-08T08:55:18.661Z,9.60
2023-01-08T08:57:46.949Z,8.07
2023-01-08T09:00:15.263Z,10.63
2023-01-08T09:02:42.501Z,8.75
2023-01-08T09:05:09.499Z,7.65
2023-01-08T09:07:38.478Z,9.85
2023-01-08T09:10:05.837Z,9.70
2023-01-08T09:12:32.651Z,10.10
2023-01-08T09:14:59.557Z,8.63
2023-01-08T09:17:26.530Z,9.95
2023-01-08T09:19:53.277Z,9.93
2023-01-08T09:24:47.175Z,7.35
2023-01-08T09:27:14.165Z,8.80
2023-01-08T09:29:40.965Z,9.00
2023-01-08T09:32:10.360Z,9.40
2023-01-08T09:34:37.330Z,8.35
2023-01-08T09:37:05.002Z,7.95
2023-01-08T09:39:32.218Z,8.00
2023-01-08T09:42:02.616Z,8.18
2023-01-08T09:44:33.986Z,7.97
2023-01-08T09:47:01.112Z,8.18
2023-01-08T09:49:42.173Z,6.82
2023-01-08T09:52:13.629Z,8.07
2023-01-08T09:54:41.096Z,8.90
2023-01-08T09:57:14.014Z,6.70
2023-01-08T09:59:40.762Z,7.82
2023-01-08T10:02:15.455Z,7.25
2023-01-08T10:04:43.969Z,7.38
2023-01-08T10:07:14.335Z,5.57
2023-01-08T10:09:41.130Z,7.57
2023-01-08T10:12:12.656Z,7.47
2023-01-08T10:14:48.088Z,7.28
2023-01-08T10:17:27.329Z,8.00
2023-01-08T10:19:54.512Z,6.68
2023-01-08T10:22:28.608Z,8.20
2023-01-08T10:25:06.848Z,7.93
2023-01-08T10:27:45.675Z,7.22
2023-01-08T10:32:48.538Z,6.00
2023-01-08T10:35:21.758Z,6.47
2023-01-08T10:37:50.553Z,8.57
2023-01-08T10:40:30.295Z,7.20
2023-01-08T10:43:05.844Z,6.57
2023-01-08T10:45:33.286Z,6.32
2023-01-08T10:48:04.800Z,7.18
2023-01-08T10:50:34.261Z,6.78
2023-01-08T10:53:03.612Z,6.32
2023-01-08T10:55:32.772Z,7.05
2023-01-08T10:58:01.720Z,6.72
2023-01-08T11:00:34.517Z,6.32
2023-01-08T11:03:04.234Z,7.43
2023-01-08T11:05:41.028Z,6.53
2023-01-08T11:08:21.912Z,7.97
2023-01-08T11:10:56.475Z,4.97
2023-01-08T11:13:24.093Z,7.50
2023-01-08T11:16:03.999Z,7.43
2023-01-08T11:18:31.317Z,7.85
2023-01-08T11:21:25.929Z,8.45
2023-01-08T11:24:13.994Z,6.90
2023-01-08T11:26:44.379Z,5.35
2023-01-08T11:29:25.895Z,7.20
2023-01-08T11:32:23.764Z,6.75
2023-01-08T11:35:03.488Z,6.65
2023-01-08T11:37:40.665Z,8.65
2023-01-08T11:40:17.035Z,7.28
2023-01-08T11:43:13.766Z,6.45
2023-01-08T11:46:03.860Z,5.90
2023-01-08T11:48:30.546Z,8.45
2023-01-08T11:51:21.180Z,5.75
2023-01-08T11:54:26.393Z,6.90
2023-01-08T11:57:18.389Z,7.00
2023-01-08T12:00:14.210Z,7.40
2023-01-08T12:02:54.236Z,6.85
2023-01-08T12:06:04.396Z,6.03
2023-01-08T12:08:43.148Z,5.07
2023-01-08T12:14:03.438Z,5.57
2023-01-08T12:16:51.902Z,5.43
2023-01-08T12:19:42.486Z,5.32
2023-01-08T12:22:36.423Z,6.38
2023-01-08T12:25:05.879Z,6.32
2023-01-08T12:27:55.921Z,6.53
2023-01-08T12:30:36.946Z,5.60
2023-01-08T12:33:33.200Z,5.22
2023-01-08T12:36:05.661Z,5.63
2023-01-08T12:38:38.107Z,5.60
2023-01-08T12:41:11.846Z,5.75
2023-01-08T12:43:50.865Z,6.85
2023-01-08T12:46:19.315Z,6.20
2023-01-08T12:48:51.660Z,5.80
2023-01-08T12:51:19.347Z,5.90
2023-01-08T12:54:04.545Z,5.18
2023-01-08T12:56:55.579Z,5.32
2023-01-08T12:59:48.122Z,4.97
2023-01-08T13:02:33.810Z,5.57
2023-01-08T13:05:12.078Z,6.07
2023-01-08T13:07:47.967Z,7.45
2023-01-08T13:10:32.410Z,5.72
2023-01-08T13:13:02.042Z,5.28
2023-01-08T13:15:32.399Z,6.63
2023-01-08T13:18:07.764Z,5.95
2023-01-08T13:20:35.207Z,5.50
2023-01-08T13:23:04.987Z,6.03
2023-01-08T13:25:33.351Z,3.95
2023-01-08T13:28:01.848Z,6.38
2023-01-08T13:30:32.768Z,5.38
2023-01-08T13:33:00.138Z,6.03
2023-01-08T13:35:31.521Z,6.00
2023-01-08T13:38:10.819Z,4.57
2023-01-08T13:40:43.703Z,7.00
2023-01-08T13:43:18.089Z,5.45
2023-01-08T13:45:54.403Z,6.38
2023-01-08T13:48:23.723Z,5.18
2023-01-08T13:50:51.149Z,6.15
2023-01-08T13:53:19.729Z,5.72
2023-01-08T13:55:57.268Z,5.07
2023-01-08T13:58:26.851Z,6.22
2023-01-08T14:00:56.664Z,5.85
2023-01-08T14:03:29.387Z,6.80
2023-01-08T14:09:00.969Z,5.43
2023-01-08T14:11:46.699Z,4.28
2023-01-08T14:14:17.221Z,5.72
2023-01-08T14:16:45.422Z,6.22
2023-01-08T14:19:17.445Z,6.43
2023-01-08T14:21:50.455Z,6.93
2023-01-08T14:24:19.100Z,6.03
2023-01-08T14:26:56.250Z,6.50
2023-01-08T14:29:29.675Z,4.90
2023-01-08T14:31:58.904Z,6.97
2023-01-08T14:34:31.249Z,5.18
2023-01-08T14:36:57.979Z,5.40
2023-01-08T14:42:14.229Z,6.10
2023-01-08T14:44:42.630Z,6.47
2023-01-08T14:47:18.907Z,6.50
2023-01-08T14:49:52.171Z,6.20
2023-01-08T14:52:21.179Z,6.72
2023-01-08T14:54:53.323Z,6.82
2023-01-08T14:57:22.153Z,7.85
2023-01-08T14:59:55.984Z,6.32
2023-01-08T15:02:27.970Z,7.40
2023-01-08T15:05:15.365Z,7.10
2023-01-08T15:07:45.701Z,6.75
2023-01-08T15:10:34.231Z,5.80
2023-01-08T15:13:03.735Z,7.30
2023-01-08T15:15:32.152Z,7.28
2023-01-08T15:17:59.586Z,7.30
2023-01-08T15:20:33.840Z,6.53
2023-01-08T15:23:00.793Z,7.72
2023-01-08T15:25:29.531Z,7.80
2023-01-08T15:28:01.597Z,7.65
2023-01-08T15:30:43.986Z,7.43
2023-01-08T15:33:19.268Z,6.95
2023-01-08T15:35:46.220Z,8.00
2023-01-08T15:38:13.712Z,7.15
2023-01-08T15:40:40.829Z,8.18
2023-01-08T15:43:11.959Z,6.97
2023-01-08T15:45:41.133Z,5.88
2023-01-08T15:48:09.695Z,5.88
2023-01-08T15:50:40.087Z,7.75
2023-01-08T15:53:13.236Z,8.55
2023-01-08T15:55:43.499Z,8.00
2023-01-08T15:58:12.480Z,8.20
2023-01-08T16:00:41.134Z,7.78
2023-01-08T16:03:08.115Z,7.70
2023-01-08T16:05:36.954Z,6.60
2023-01-08T16:08:04.828Z,8.20
2023-01-08T16:10:32.196Z,8.98
2023-01-08T16:13:01.114Z,7.18
2023-01-08T16:15:28.775Z,5.55
2023-01-08T16:17:55.623Z,6.72
2023-01-08T16:20:22.401Z,7.95
2023-01-08T16:25:15.827Z,7.28
2023-01-08T16:27:43.286Z,6.95
2023-01-08T16:30:14.716Z,8.80
2023-01-08T16:32:42.025Z,7.75
2023-01-08T16:35:09.627Z,9.07
2023-01-08T16:37:36.582Z,7.07
2023-01-08T16:40:03.950Z,7.85
2023-01-08T16:42:30.780Z,9.25
2023-01-08T16:44:57.467Z,7.28
2023-01-08T16:49:51.156Z,7.78
2023-01-08T16:52:17.999Z,6.07
2023-01-08T16:54:46.041Z,6.25
2023-01-08T16:57:12.912Z,8.63
2023-01-08T16:59:39.713Z,8.50
2023-01-08T17:02:06.654Z,8.07
2023-01-08T17:04:33.336Z,9.57
2023-01-08T17:09:26.508Z,9.05
2023-01-08T17:14:20.472Z,11.00
2023-01-08T17:19:16.558Z,8.07
2023-01-08T17:21:44.695Z,9.05
2023-01-08T17:24:11.614Z,9.25
2023-01-08T17:26:38.344Z,9.68
2023-01-08T17:29:05.023Z,9.93
2023-01-08T17:34:08.744Z,8.18
2023-01-08T17:36:36.257Z,9.18
2023-01-08T17:39:03.399Z,7.85
2023-01-08T17:41:48.686Z,8.77
2023-01-08T17:44:15.458Z,8.10
2023-01-08T17:46:45.221Z,7.72
2023-01-08T17:49:14.248Z,7.50
2023-01-08T17:51:42.178Z,8.02
2023-01-08T17:54:12.624Z,9.35
2023-01-08T17:56:39.447Z,9.57
2023-01-08T17:59:07.464Z,7.72
2023-01-08T18:01:35.151Z,7.75
2023-01-08T18:04:02.119Z,7.75
2023-01-08T18:06:28.911Z,9.07
2023-01-08T18:08:55.565Z,7.70
2023-01-08T18:13:49.246Z,7.75
2023-01-08T18:16:16.428Z,7.13
2023-01-08T18:18:43.092Z,8.65
2023-01-08T18:21:10.155Z,7.95
2023-01-08T18:23:37.008Z,8.60
2023-01-08T18:26:09.503Z,10.05
2023-01-08T18:28:37.660Z,8.80
2023-01-08T18:33:36.435Z,7.22
2023-01-08T18:36:06.722Z,8.48
2023-01-08T18:38:33.488Z,7.85
2023-01-08T18:41:00.476Z,7.45
2023-01-08T18:43:28.589Z,8.57
2023-01-08T18:46:04.616Z,8.82
2023-01-08T18:48:32.221Z,6.00
2023-01-08T18:51:05.210Z,7.68
2023-01-08T18:53:33.550Z,7.70
2023-01-08T18:56:01.334Z,7.30
2023-01-08T18:58:29.312Z,6.50
2023-01-08T19:00:56.239Z,10.13
2023-01-08T19:03:23.014Z,7.15
2023-01-08T19:08:16.328Z,7.75
2023-01-08T19:10:42.931Z,7.35
2023-01-08T19:13:09.582Z,7.80
2023-01-08T19:15:36.264Z,7.05
2023-01-08T19:18:04.993Z,7.03
2023-01-08T19:20:31.685Z,8.40
2023-01-08T19:22:58.371Z,7.63
2023-01-08T19:27:51.765Z,7.25
2023-01-08T19:30:18.690Z,7.28
2023-01-08T19:32:47.519Z,7.00
2023-01-08T19:35:14.496Z,7.93
2023-01-08T19:37:43.223Z,7.57
2023-01-08T19:40:10.632Z,8.98
2023-01-08T19:42:55.599Z,9.73
2023-01-08T19:45:22.418Z,9.38
2023-01-08T19:50:16.062Z,8.65
2023-01-08T19:52:42.833Z,9.30
2023-01-08T19:57:36.127Z,7.03
2023-01-08T20:00:03.403Z,5.15
2023-01-08T20:02:38.418Z,7.25
2023-01-08T20:05:05.915Z,7.32
2023-01-08T20:07:32.630Z,6.88
2023-01-08T20:12:26.073Z,6.22
2023-01-08T20:14:52.680Z,6.93
2023-01-08T20:17:19.342Z,8.90
2023-01-08T20:22:12.578Z,8.77
2023-01-08T20:24:39.376Z,9.10
2023-01-08T20:27:07.735Z,8.15
2023-01-08T20:29:34.474Z,8.90
2023-01-08T20:34:29.973Z,8.80
2023-01-08T20:36:57.344Z,6.93
2023-01-08T20:39:24.558Z,8.50
2023-01-08T20:42:01.198Z,8.48
2023-01-08T20:44:32.759Z,8.80
2023-01-08T20:47:00.037Z,8.27
2023-01-08T20:49:27.050Z,8.50
2023-01-08T20:51:59.239Z,6.85
2023-01-08T20:54:27.880Z,7.07
2023-01-08T20:56:59.498Z,7.13
2023-01-08T20:59:26.983Z,8.18
2023-01-08T21:01:54.235Z,7.72
2023-01-08T21:04:22.888Z,7.55
2023-01-08T21:06:49.687Z,6.97
2023-01-08T21:11:44.671Z,7.43
2023-01-08T21:14:11.486Z,7.45
2023-01-08T21:16:40.549Z,8.13
2023-01-08T21:19:10.477Z,8.02
2023-01-08T21:21:40.144Z,6.97
2023-01-08T21:24:09.143Z,8.05
2023-01-08T21:26:37.515Z,8.32
2023-01-08T21:29:08.128Z,8.25
2023-01-08T21:31:36.377Z,8.50
2023-01-08T21:34:04.689Z,8.65
2023-01-08T21:36:32.218Z,8.35
2023-01-08T21:39:01.163Z,8.32
2023-01-08T21:41:48.020Z,7.80
2023-01-08T21:44:36.484Z,7.43
2023-01-08T21:47:05.649Z,8.10
2023-01-08T21:49:32.621Z,7.70
2023-01-08T21:52:18.338Z,8.05
2023-01-08T21:54:46.365Z,7.57
2023-01-08T21:57:13.013Z,8.10
2023-01-08T22:02:06.540Z,7.38
2023-01-08T22:04:33.344Z,8.70
2023-01-08T22:07:00.079Z,7.97
2023-01-08T22:09:26.810Z,8.35
2023-01-08T22:11:55.998Z,7.75
2023-01-08T22:14:23.213Z,8.05
2023-01-08T22:16:49.966Z,6.57
2023-01-08T22:21:43.192Z,7.57
2023-01-08T22:26:36.330Z,8.43
2023-01-08T22:29:04.209Z,8.32
2023-01-08T22:31:31.003Z,7.95
2023-01-08T22:33:57.921Z,7.93
2023-01-08T22:36:25.000Z,7.45
2023-01-08T22:38:51.981Z,6.38
2023-01-08T22:41:22.202Z,7.78
2023-01-08T22:43:53.528Z,7.53
2023-01-08T22:46:20.151Z,7.72
2023-01-08T22:48:46.860Z,9.10
2023-01-08T22:53:40.510Z,5.82
2023-01-08T22:56:12.203Z,7.53
2023-01-08T22:58:45.302Z,7.95
2023-01-08T23:01:14.352Z,6.65
2023-01-08T23:03:44.789Z,7.57
2023-01-08T23:06:13.022Z,8.45
2023-01-08T23:08:41.072Z,7.68
2023-01-08T23:11:10.374Z,8.07
2023-01-08T23:13:37.490Z,6.85
2023-01-08T23:16:05.333Z,7.38
2023-01-08T23:18:32.114Z,7.97
2023-01-08T23:21:27.239Z,7.22
2023-01-08T23:23:54.249Z,6.97
2023-01-08T23:26:29.340Z,7.40
2023-01-08T23:28:57.476Z,5.88
2023-01-08T23:31:27.766Z,8.18
2023-01-08T23:33:54.658Z,9.02
2023-01-08T23:36:22.129Z,8.13
2023-01-08T23:38:52.055Z,8.85
2023-01-08T23:41:20.790Z,9.30
2023-01-08T23:43:48.823Z,9.25
2023-01-08T23:46:15.579Z,8.93
2023-01-08T23:51:09.062Z,8.20
2023-01-08T23:53:35.891Z,8.50
2023-01-08T23:56:02.575Z,8.73
2023-01-08T23:58:29.339Z,8.45
